sensor_id;sensor_type;location;lat;lon;timestamp;P1;durP1;ratioP1;P2;durP2;ratioP2
12135;SDS011;6131;56.420;15.548;2023-09-19T00:00:27;11.15;;;7.80;;
12135;SDS011;6131;56.420;15.548;2023-09-19T00:02:54;10.23;;;7.50;;
12135;SDS011;6131;56.420;15.548;2023-09-19T00:05:24;8.05;;;7.15;;
12135;SDS011;6131;56.420;15.548;2023-09-19T00:07:53;9.27;;;7.57;;
12135;SDS011;6131;56.420;15.548;2023-09-19T00:10:20;10.77;;;7.78;;
12135;SDS011;6131;56.420;15.548;2023-09-19T00:12:47;8.77;;;7.28;;
12135;SDS011;6131;56.420;15.548;2023-09-19T00:15:13;12.05;;;7.93;;
12135;SDS011;6131;56.420;15.548;2023-09-19T00:17:42;16.23;;;8.13;;
12135;SDS011;6131;56.420;15.548;2023-09-19T00:20:09;8.82;;;7.85;;
12135;SDS011;6131;56.420;15.548;2023-09-19T00:22:40;8.90;;;7.68;;
12135;SDS011;6131;56.420;15.548;2023-09-19T00:25:07;11.18;;;7.75;;
12135;SDS011;6131;56.420;15.548;2023-09-19T00:27:35;9.38;;;8.27;;
12135;SDS011;6131;56.420;15.548;2023-09-19T00:30:06;10.90;;;7.55;;
12135;SDS011;6131;56.420;15.548;2023-09-19T00:32:34;8.27;;;7.20;;
12135;SDS011;6131;56.420;15.548;2023-09-19T00:35:00;10.75;;;7.80;;
12135;SDS011;6131;56.420;15.548;2023-09-19T00:37:26;9.27;;;8.25;;
12135;SDS011;6131;56.420;15.548;2023-09-19T00:39:52;9.20;;;6.57;;
12135;SDS011;6131;56.420;15.548;2023-09-19T00:42:19;9.57;;;7.88;;
12135;SDS011;6131;56.420;15.548;2023-09-19T00:44:46;11.27;;;6.82;;
12135;SDS011;6131;56.420;15.548;2023-09-19T00:47:16;13.50;;;8.75;;
12135;SDS011;6131;56.420;15.548;2023-09-19T00:49:45;10.55;;;7.07;;
12135;SDS011;6131;56.420;15.548;2023-09-19T00:52:14;11.00;;;8.27;;
12135;SDS011;6131;56.420;15.548;2023-09-19T00:54:40;10.20;;;9.13;;
12135;SDS011;6131;56.420;15.548;2023-09-19T00:57:06;11.23;;;8.63;;
12135;SDS011;6131;56.420;15.548;2023-09-19T00:59:33;9.98;;;8.85;;
12135;SDS011;6131;56.420;15.548;2023-09-19T01:02:00;10.98;;;7.43;;
12135;SDS011;6131;56.420;15.548;2023-09-19T01:04:26;14.32;;;9.43;;
12135;SDS011;6131;56.420;15.548;2023-09-19T01:06:52;11.13;;;8.63;;
12135;SDS011;6131;56.420;15.548;2023-09-19T01:09:19;12.50;;;8.55;;
12135;SDS011;6131;56.420;15.548;2023-09-19T01:11:46;9.38;;;8.07;;
12135;SDS011;6131;56.420;15.548;2023-09-19T01:30:08;13.20;;;9.57;;
12135;SDS011;6131;56.420;15.548;2023-09-19T01:32:35;12.63;;;8.85;;
12135;SDS011;6131;56.420;15.548;2023-09-19T01:35:03;12.38;;;9.15;;
12135;SDS011;6131;56.420;15.548;2023-09-19T01:37:29;12.30;;;9.52;;
12135;SDS011;6131;56.420;15.548;2023-09-19T01:42:41;12.75;;;9.82;;
12135;SDS011;6131;56.420;15.548;2023-09-19T01:47:46;12.50;;;9.30;;
12135;SDS011;6131;56.420;15.548;2023-09-19T01:53:06;10.77;;;7.13;;
12135;SDS011;6131;56.420;15.548;2023-09-19T01:55:36;11.77;;;9.93;;
12135;SDS011;6131;56.420;15.548;2023-09-19T02:00:32;11.77;;;9.65;;
12135;SDS011;6131;56.420;15.548;2023-09-19T02:03:00;9.15;;;7.25;;
12135;SDS011;6131;56.420;15.548;2023-09-19T02:05:26;9.75;;;7.05;;
12135;SDS011;6131;56.420;15.548;2023-09-19T02:07:52;10.70;;;7.75;;
12135;SDS011;6131;56.420;15.548;2023-09-19T02:10:19;9.07;;;8.02;;
12135;SDS011;6131;56.420;15.548;2023-09-19T02:12:45;13.13;;;8.00;;
12135;SDS011;6131;56.420;15.548;2023-09-19T02:15:11;10.75;;;9.20;;
12135;SDS011;6131;56.420;15.548;2023-09-19T02:17:37;10.35;;;8.07;;
12135;SDS011;6131;56.420;15.548;2023-09-19T02:20:03;9.43;;;7.60;;
12135;SDS011;6131;56.420;15.548;2023-09-19T02:22:34;12.88;;;10.10;;
12135;SDS011;6131;56.420;15.548;2023-09-19T02:25:00;11.55;;;8.20;;
12135;SDS011;6131;56.420;15.548;2023-09-19T02:27:29;11.35;;;8.30;;
12135;SDS011;6131;56.420;15.548;2023-09-19T02:29:56;12.48;;;9.63;;
12135;SDS011;6131;56.420;15.548;2023-09-19T02:32:22;13.45;;;10.15;;
12135;SDS011;6131;56.420;15.548;2023-09-19T02:34:48;9.27;;;7.55;;
12135;SDS011;6131;56.420;15.548;2023-09-19T02:37:16;15.02;;;9.32;;
12135;SDS011;6131;56.420;15.548;2023-09-19T02:39:43;14.35;;;9.88;;
12135;SDS011;6131;56.420;15.548;2023-09-19T02:42:09;13.35;;;9.48;;
12135;SDS011;6131;56.420;15.548;2023-09-19T02:44:35;13.05;;;8.73;;
12135;SDS011;6131;56.420;15.548;2023-09-19T02:47:03;9.50;;;7.93;;
12135;SDS011;6131;56.420;15.548;2023-09-19T02:49:29;13.77;;;8.90;;
12135;SDS011;6131;56.420;15.548;2023-09-19T02:51:55;10.73;;;8.40;;
12135;SDS011;6131;56.420;15.548;2023-09-19T02:54:23;15.93;;;9.68;;
12135;SDS011;6131;56.420;15.548;2023-09-19T02:56:49;11.32;;;8.73;;
12135;SDS011;6131;56.420;15.548;2023-09-19T02:59:15;12.35;;;8.90;;
12135;SDS011;6131;56.420;15.548;2023-09-19T03:01:45;11.15;;;8.45;;
12135;SDS011;6131;56.420;15.548;2023-09-19T03:04:13;13.90;;;8.52;;
12135;SDS011;6131;56.420;15.548;2023-09-19T03:06:44;9.45;;;8.50;;
12135;SDS011;6131;56.420;15.548;2023-09-19T03:09:10;12.65;;;8.23;;
12135;SDS011;6131;56.420;15.548;2023-09-19T03:11:36;13.70;;;8.27;;
12135;SDS011;6131;56.420;15.548;2023-09-19T03:14:02;11.43;;;7.85;;
12135;SDS011;6131;56.420;15.548;2023-09-19T03:16:29;12.68;;;7.65;;
12135;SDS011;6131;56.420;15.548;2023-09-19T03:18:55;12.38;;;8.40;;
12135;SDS011;6131;56.420;15.548;2023-09-19T03:21:21;13.25;;;8.05;;
12135;SDS011;6131;56.420;15.548;2023-09-19T03:23:47;10.90;;;7.63;;
12135;SDS011;6131;56.420;15.548;2023-09-19T03:26:13;12.43;;;8.07;;
12135;SDS011;6131;56.420;15.548;2023-09-19T03:28:41;13.00;;;7.35;;
12135;SDS011;6131;56.420;15.548;2023-09-19T03:31:07;10.93;;;7.85;;
12135;SDS011;6131;56.420;15.548;2023-09-19T03:33:33;10.57;;;8.00;;
12135;SDS011;6131;56.420;15.548;2023-09-19T03:36:00;10.05;;;7.50;;
12135;SDS011;6131;56.420;15.548;2023-09-19T03:38:29;13.25;;;8.75;;
12135;SDS011;6131;56.420;15.548;2023-09-19T03:40:55;14.05;;;8.30;;
12135;SDS011;6131;56.420;15.548;2023-09-19T03:43:21;12.05;;;7.85;;
12135;SDS011;6131;56.420;15.548;2023-09-19T03:45:47;14.52;;;8.48;;
12135;SDS011;6131;56.420;15.548;2023-09-19T03:48:14;9.50;;;7.43;;
12135;SDS011;6131;56.420;15.548;2023-09-19T03:50:40;13.45;;;8.10;;
12135;SDS011;6131;56.420;15.548;2023-09-19T03:53:06;12.50;;;8.05;;
12135;SDS011;6131;56.420;15.548;2023-09-19T03:55:32;14.07;;;8.18;;
12135;SDS011;6131;56.420;15.548;2023-09-19T03:58:03;12.73;;;7.68;;
12135;SDS011;6131;56.420;15.548;2023-09-19T04:00:29;13.82;;;7.93;;
12135;SDS011;6131;56.420;15.548;2023-09-19T04:02:55;10.93;;;7.53;;
12135;SDS011;6131;56.420;15.548;2023-09-19T04:05:24;11.63;;;7.65;;
12135;SDS011;6131;56.420;15.548;2023-09-19T04:07:50;13.00;;;7.63;;
12135;SDS011;6131;56.420;15.548;2023-09-19T04:10:16;11.20;;;7.25;;
12135;SDS011;6131;56.420;15.548;2023-09-19T04:12:52;11.68;;;7.18;;
12135;SDS011;6131;56.420;15.548;2023-09-19T04:15:18;11.65;;;7.20;;
12135;SDS011;6131;56.420;15.548;2023-09-19T04:17:47;10.98;;;6.80;;
12135;SDS011;6131;56.420;15.548;2023-09-19T04:20:13;11.02;;;6.63;;
12135;SDS011;6131;56.420;15.548;2023-09-19T04:22:39;10.10;;;5.55;;
12135;SDS011;6131;56.420;15.548;2023-09-19T04:25:05;11.02;;;6.30;;
12135;SDS011;6131;56.420;15.548;2023-09-19T04:27:32;8.40;;;5.50;;
12135;SDS011;6131;56.420;15.548;2023-09-19T04:29:58;12.32;;;5.63;;
12135;SDS011;6131;56.420;15.548;2023-09-19T04:32:28;8.32;;;5.13;;
12135;SDS011;6131;56.420;15.548;2023-09-19T04:34:54;7.80;;;5.25;;
12135;SDS011;6131;56.420;15.548;2023-09-19T04:37:25;8.75;;;4.85;;
12135;SDS011;6131;56.420;15.548;2023-09-19T04:39:51;11.70;;;4.88;;
12135;SDS011;6131;56.420;15.548;2023-09-19T04:42:17;9.10;;;4.22;;
12135;SDS011;6131;56.420;15.548;2023-09-19T04:44:42;9.27;;;4.03;;
12135;SDS011;6131;56.420;15.548;2023-09-19T04:47:08;7.30;;;3.95;;
12135;SDS011;6131;56.420;15.548;2023-09-19T04:49:37;6.53;;;3.88;;
12135;SDS011;6131;56.420;15.548;2023-09-19T04:52:04;9.25;;;3.92;;
12135;SDS011;6131;56.420;15.548;2023-09-19T04:54:31;5.65;;;3.53;;
12135;SDS011;6131;56.420;15.548;2023-09-19T04:56:59;8.23;;;3.30;;
12135;SDS011;6131;56.420;15.548;2023-09-19T04:59:28;5.68;;;3.47;;
12135;SDS011;6131;56.420;15.548;2023-09-19T05:01:54;7.25;;;3.08;;
12135;SDS011;6131;56.420;15.548;2023-09-19T05:04:20;6.53;;;3.10;;
12135;SDS011;6131;56.420;15.548;2023-09-19T05:06:47;7.75;;;3.00;;
12135;SDS011;6131;56.420;15.548;2023-09-19T05:09:13;6.60;;;3.15;;
12135;SDS011;6131;56.420;15.548;2023-09-19T05:11:40;5.47;;;2.70;;
12135;SDS011;6131;56.420;15.548;2023-09-19T05:14:06;9.00;;;2.83;;
12135;SDS011;6131;56.420;15.548;2023-09-19T05:16:32;5.90;;;2.70;;
12135;SDS011;6131;56.420;15.548;2023-09-19T05:18:58;4.93;;;2.70;;
12135;SDS011;6131;56.420;15.548;2023-09-19T05:21:25;7.03;;;3.03;;
12135;SDS011;6131;56.420;15.548;2023-09-19T05:23:55;5.68;;;3.03;;
12135;SDS011;6131;56.420;15.548;2023-09-19T05:26:21;6.28;;;2.83;;
12135;SDS011;6131;56.420;15.548;2023-09-19T05:28:47;5.40;;;2.85;;
12135;SDS011;6131;56.420;15.548;2023-09-19T05:31:13;6.13;;;2.97;;
12135;SDS011;6131;56.420;15.548;2023-09-19T05:33:40;6.47;;;3.00;;
12135;SDS011;6131;56.420;15.548;2023-09-19T05:36:07;5.07;;;2.67;;
12135;SDS011;6131;56.420;15.548;2023-09-19T05:38:35;5.93;;;2.65;;
12135;SDS011;6131;56.420;15.548;2023-09-19T05:41:02;6.60;;;3.05;;
12135;SDS011;6131;56.420;15.548;2023-09-19T05:43:28;5.70;;;2.78;;
12135;SDS011;6131;56.420;15.548;2023-09-19T05:45:54;6.85;;;2.70;;
12135;SDS011;6131;56.420;15.548;2023-09-19T05:48:21;7.88;;;2.88;;
12135;SDS011;6131;56.420;15.548;2023-09-19T05:50:47;5.80;;;2.65;;
12135;SDS011;6131;56.420;15.548;2023-09-19T05:53:14;5.72;;;3.13;;
12135;SDS011;6131;56.420;15.548;2023-09-19T05:55:40;7.28;;;2.70;;
12135;SDS011;6131;56.420;15.548;2023-09-19T05:58:06;6.45;;;2.60;;
12135;SDS011;6131;56.420;15.548;2023-09-19T06:00:33;4.72;;;2.45;;
12135;SDS011;6131;56.420;15.548;2023-09-19T06:02:59;4.30;;;2.10;;
12135;SDS011;6131;56.420;15.548;2023-09-19T06:05:26;4.60;;;2.10;;
12135;SDS011;6131;56.420;15.548;2023-09-19T06:07:53;7.47;;;2.45;;
12135;SDS011;6131;56.420;15.548;2023-09-19T06:10:19;4.90;;;2.05;;
12135;SDS011;6131;56.420;15.548;2023-09-19T06:12:47;3.90;;;2.05;;
12135;SDS011;6131;56.420;15.548;2023-09-19T06:15:14;3.92;;;2.00;;
12135;SDS011;6131;56.420;15.548;2023-09-19T06:17:50;4.00;;;2.00;;
12135;SDS011;6131;56.420;15.548;2023-09-19T06:20:20;6.07;;;2.30;;
12135;SDS011;6131;56.420;15.548;2023-09-19T06:22:47;3.65;;;1.80;;
12135;SDS011;6131;56.420;15.548;2023-09-19T06:25:14;3.60;;;2.00;;
12135;SDS011;6131;56.420;15.548;2023-09-19T06:27:47;4.30;;;2.30;;
12135;SDS011;6131;56.420;15.548;2023-09-19T06:30:13;6.65;;;2.03;;
12135;SDS011;6131;56.420;15.548;2023-09-19T06:32:42;3.65;;;2.08;;
12135;SDS011;6131;56.420;15.548;2023-09-19T06:35:15;4.28;;;1.70;;
12135;SDS011;6131;56.420;15.548;2023-09-19T06:37:41;3.38;;;1.50;;
12135;SDS011;6131;56.420;15.548;2023-09-19T06:40:08;3.17;;;1.73;;
12135;SDS011;6131;56.420;15.548;2023-09-19T06:42:41;4.40;;;1.70;;
12135;SDS011;6131;56.420;15.548;2023-09-19T06:45:07;3.60;;;1.80;;
12135;SDS011;6131;56.420;15.548;2023-09-19T06:47:36;4.63;;;1.75;;
12135;SDS011;6131;56.420;15.548;2023-09-19T06:50:02;3.65;;;1.80;;
12135;SDS011;6131;56.420;15.548;2023-09-19T06:52:30;5.20;;;1.75;;
12135;SDS011;6131;56.420;15.548;2023-09-19T06:54:56;4.18;;;1.77;;
12135;SDS011;6131;56.420;15.548;2023-09-19T06:57:22;6.53;;;1.67;;
12135;SDS011;6131;56.420;15.548;2023-09-19T06:59:49;3.42;;;1.80;;
12135;SDS011;6131;56.420;15.548;2023-09-19T07:02:15;5.70;;;1.90;;
12135;SDS011;6131;56.420;15.548;2023-09-19T07:04:41;2.90;;;1.63;;
12135;SDS011;6131;56.420;15.548;2023-09-19T07:07:07;4.95;;;1.60;;
12135;SDS011;6131;56.420;15.548;2023-09-19T07:09:34;5.63;;;1.63;;
12135;SDS011;6131;56.420;15.548;2023-09-19T07:12:00;4.40;;;1.50;;
12135;SDS011;6131;56.420;15.548;2023-09-19T07:14:26;4.53;;;1.65;;
12135;SDS011;6131;56.420;15.548;2023-09-19T07:16:53;2.17;;;1.50;;
12135;SDS011;6131;56.420;15.548;2023-09-19T07:19:19;4.55;;;1.58;;
12135;SDS011;6131;56.420;15.548;2023-09-19T07:21:45;3.63;;;1.40;;
12135;SDS011;6131;56.420;15.548;2023-09-19T07:24:12;4.45;;;1.50;;
12135;SDS011;6131;56.420;15.548;2023-09-19T07:26:38;3.25;;;1.23;;
12135;SDS011;6131;56.420;15.548;2023-09-19T07:29:05;4.43;;;1.63;;
12135;SDS011;6131;56.420;15.548;2023-09-19T07:31:31;4.18;;;1.55;;
12135;SDS011;6131;56.420;15.548;2023-09-19T07:33:58;3.28;;;1.30;;
12135;SDS011;6131;56.420;15.548;2023-09-19T07:36:24;4.07;;;1.38;;
12135;SDS011;6131;56.420;15.548;2023-09-19T07:38:50;6.38;;;1.50;;
12135;SDS011;6131;56.420;15.548;2023-09-19T07:41:16;3.95;;;1.50;;
12135;SDS011;6131;56.420;15.548;2023-09-19T07:43:42;5.32;;;1.83;;
12135;SDS011;6131;56.420;15.548;2023-09-19T07:46:09;3.67;;;1.30;;
12135;SDS011;6131;56.420;15.548;2023-09-19T07:48:36;2.50;;;1.30;;
12135;SDS011;6131;56.420;15.548;2023-09-19T07:51:03;3.83;;;1.45;;
12135;SDS011;6131;56.420;15.548;2023-09-19T07:53:29;4.50;;;1.67;;
12135;SDS011;6131;56.420;15.548;2023-09-19T07:56:08;4.38;;;1.67;;
12135;SDS011;6131;56.420;15.548;2023-09-19T07:58:35;5.53;;;1.73;;
12135;SDS011;6131;56.420;15.548;2023-09-19T08:01:07;4.90;;;1.65;;
12135;SDS011;6131;56.420;15.548;2023-09-19T08:03:36;3.95;;;1.48;;
12135;SDS011;6131;56.420;15.548;2023-09-19T08:06:06;3.40;;;1.35;;
12135;SDS011;6131;56.420;15.548;2023-09-19T08:08:32;3.92;;;1.40;;
12135;SDS011;6131;56.420;15.548;2023-09-19T08:11:05;5.88;;;1.63;;
12135;SDS011;6131;56.420;15.548;2023-09-19T08:13:38;5.03;;;1.50;;
12135;SDS011;6131;56.420;15.548;2023-09-19T08:16:08;6.00;;;1.60;;
12135;SDS011;6131;56.420;15.548;2023-09-19T08:18:35;4.22;;;1.52;;
12135;SDS011;6131;56.420;15.548;2023-09-19T08:21:01;3.45;;;1.55;;
12135;SDS011;6131;56.420;15.548;2023-09-19T08:23:27;4.03;;;1.45;;
12135;SDS011;6131;56.420;15.548;2023-09-19T08:25:56;5.15;;;1.60;;
12135;SDS011;6131;56.420;15.548;2023-09-19T08:28:23;5.90;;;1.80;;
12135;SDS011;6131;56.420;15.548;2023-09-19T08:30:49;3.25;;;1.48;;
12135;SDS011;6131;56.420;15.548;2023-09-19T08:33:16;3.25;;;1.58;;
12135;SDS011;6131;56.420;15.548;2023-09-19T08:35:42;4.47;;;1.60;;
12135;SDS011;6131;56.420;15.548;2023-09-19T08:38:09;7.43;;;1.83;;
12135;SDS011;6131;56.420;15.548;2023-09-19T08:40:38;5.38;;;1.58;;
12135;SDS011;6131;56.420;15.548;2023-09-19T08:43:06;6.68;;;1.63;;
12135;SDS011;6131;56.420;15.548;2023-09-19T08:45:33;4.70;;;1.73;;
12135;SDS011;6131;56.420;15.548;2023-09-19T08:50:29;2.53;;;1.50;;
12135;SDS011;6131;56.420;15.548;2023-09-19T08:52:56;5.88;;;1.70;;
12135;SDS011;6131;56.420;15.548;2023-09-19T08:55:29;3.08;;;1.63;;
12135;SDS011;6131;56.420;15.548;2023-09-19T08:57:59;3.92;;;1.50;;
12135;SDS011;6131;56.420;15.548;2023-09-19T09:00:27;3.40;;;1.45;;
12135;SDS011;6131;56.420;15.548;2023-09-19T09:02:54;6.25;;;1.92;;
12135;SDS011;6131;56.420;15.548;2023-09-19T09:05:21;4.80;;;1.90;;
12135;SDS011;6131;56.420;15.548;2023-09-19T09:07:49;5.85;;;1.90;;
12135;SDS011;6131;56.420;15.548;2023-09-19T09:10:19;4.35;;;1.80;;
12135;SDS011;6131;56.420;15.548;2023-09-19T09:12:52;3.22;;;1.65;;
12135;SDS011;6131;56.420;15.548;2023-09-19T09:15:23;5.75;;;2.00;;
12135;SDS011;6131;56.420;15.548;2023-09-19T09:17:49;3.63;;;1.73;;
12135;SDS011;6131;56.420;15.548;2023-09-19T09:20:16;7.95;;;1.70;;
12135;SDS011;6131;56.420;15.548;2023-09-19T09:22:53;4.70;;;1.65;;
12135;SDS011;6131;56.420;15.548;2023-09-19T09:25:19;3.88;;;1.63;;
12135;SDS011;6131;56.420;15.548;2023-09-19T09:28:01;3.80;;;1.35;;
12135;SDS011;6131;56.420;15.548;2023-09-19T09:30:33;5.38;;;1.95;;
12135;SDS011;6131;56.420;15.548;2023-09-19T09:33:10;5.45;;;1.70;;
12135;SDS011;6131;56.420;15.548;2023-09-19T09:35:36;7.90;;;2.20;;
12135;SDS011;6131;56.420;15.548;2023-09-19T09:38:06;3.58;;;1.50;;
12135;SDS011;6131;56.420;15.548;2023-09-19T09:40:51;10.73;;;2.03;;
12135;SDS011;6131;56.420;15.548;2023-09-19T09:43:36;6.97;;;2.00;;
12135;SDS011;6131;56.420;15.548;2023-09-19T09:46:20;17.90;;;2.80;;
12135;SDS011;6131;56.420;15.548;2023-09-19T09:48:47;6.55;;;1.70;;
12135;SDS011;6131;56.420;15.548;2023-09-19T09:51:36;8.13;;;2.00;;
12135;SDS011;6131;56.420;15.548;2023-09-19T09:54:14;3.97;;;1.73;;
12135;SDS011;6131;56.420;15.548;2023-09-19T10:02:11;4.82;;;1.70;;
12135;SDS011;6131;56.420;15.548;2023-09-19T10:04:38;4.72;;;1.90;;
12135;SDS011;6131;56.420;15.548;2023-09-19T10:07:50;3.38;;;1.48;;
12135;SDS011;6131;56.420;15.548;2023-09-19T10:10:32;6.32;;;1.85;;
12135;SDS011;6131;56.420;15.548;2023-09-19T10:13:18;5.32;;;1.85;;
12135;SDS011;6131;56.420;15.548;2023-09-19T10:15:49;4.80;;;1.65;;
12135;SDS011;6131;56.420;15.548;2023-09-19T10:18:23;3.60;;;1.58;;
12135;SDS011;6131;56.420;15.548;2023-09-19T10:20:50;6.13;;;2.10;;
12135;SDS011;6131;56.420;15.548;2023-09-19T10:23:19;5.68;;;2.00;;
12135;SDS011;6131;56.420;15.548;2023-09-19T10:25:48;6.65;;;2.25;;
12135;SDS011;6131;56.420;15.548;2023-09-19T10:28:15;6.40;;;1.95;;
12135;SDS011;6131;56.420;15.548;2023-09-19T10:30:42;5.10;;;2.00;;
12135;SDS011;6131;56.420;15.548;2023-09-19T10:33:22;5.40;;;2.38;;
12135;SDS011;6131;56.420;15.548;2023-09-19T10:35:52;6.32;;;1.75;;
12135;SDS011;6131;56.420;15.548;2023-09-19T10:38:23;4.75;;;1.83;;
12135;SDS011;6131;56.420;15.548;2023-09-19T10:40:52;7.40;;;2.00;;
12135;SDS011;6131;56.420;15.548;2023-09-19T10:43:20;9.90;;;2.40;;
12135;SDS011;6131;56.420;15.548;2023-09-19T10:45:47;6.78;;;2.00;;
12135;SDS011;6131;56.420;15.548;2023-09-19T10:48:17;5.88;;;2.03;;
12135;SDS011;6131;56.420;15.548;2023-09-19T10:53:10;5.55;;;2.00;;
12135;SDS011;6131;56.420;15.548;2023-09-19T10:55:37;5.10;;;1.85;;
12135;SDS011;6131;56.420;15.548;2023-09-19T10:58:04;7.82;;;1.65;;
12135;SDS011;6131;56.420;15.548;2023-09-19T11:00:53;5.57;;;1.90;;
12135;SDS011;6131;56.420;15.548;2023-09-19T11:03:20;6.22;;;1.67;;
12135;SDS011;6131;56.420;15.548;2023-09-19T11:06:06;5.65;;;1.80;;
12135;SDS011;6131;56.420;15.548;2023-09-19T11:08:52;4.00;;;1.52;;
12135;SDS011;6131;56.420;15.548;2023-09-19T11:14:14;4.00;;;1.45;;
12135;SDS011;6131;56.420;15.548;2023-09-19T11:17:12;5.78;;;1.98;;
12135;SDS011;6131;56.420;15.548;2023-09-19T11:20:10;6.13;;;1.85;;
12135;SDS011;6131;56.420;15.548;2023-09-19T11:22:13;7.72;;;1.75;;
12135;SDS011;6131;56.420;15.548;2023-09-19T11:24:39;6.28;;;1.65;;
12135;SDS011;6131;56.420;15.548;2023-09-19T11:27:10;4.30;;;1.75;;
12135;SDS011;6131;56.420;15.548;2023-09-19T11:29:40;7.10;;;1.95;;
12135;SDS011;6131;56.420;15.548;2023-09-19T11:32:06;6.47;;;1.80;;
12135;SDS011;6131;56.420;15.548;2023-09-19T11:39:37;7.38;;;1.80;;
12135;SDS011;6131;56.420;15.548;2023-09-19T11:44:48;5.65;;;1.55;;
12135;SDS011;6131;56.420;15.548;2023-09-19T11:47:16;2.80;;;1.25;;
12135;SDS011;6131;56.420;15.548;2023-09-19T11:49:45;6.07;;;1.30;;
12135;SDS011;6131;56.420;15.548;2023-09-19T11:52:16;4.05;;;1.23;;
12135;SDS011;6131;56.420;15.548;2023-09-19T11:54:53;3.95;;;1.13;;
12135;SDS011;6131;56.420;15.548;2023-09-19T11:57:21;1.65;;;0.90;;
12135;SDS011;6131;56.420;15.548;2023-09-19T11:59:48;2.95;;;1.00;;
12135;SDS011;6131;56.420;15.548;2023-09-19T12:02:18;3.55;;;1.13;;
12135;SDS011;6131;56.420;15.548;2023-09-19T12:04:53;3.42;;;1.00;;
12135;SDS011;6131;56.420;15.548;2023-09-19T12:07:20;3.20;;;1.05;;
12135;SDS011;6131;56.420;15.548;2023-09-19T12:10:20;3.67;;;1.25;;
12135;SDS011;6131;56.420;15.548;2023-09-19T12:12:45;3.40;;;1.13;;
12135;SDS011;6131;56.420;15.548;2023-09-19T12:15:13;2.42;;;1.08;;
12135;SDS011;6131;56.420;15.548;2023-09-19T12:17:40;2.13;;;0.95;;
12135;SDS011;6131;56.420;15.548;2023-09-19T12:20:07;2.13;;;1.00;;
12135;SDS011;6131;56.420;15.548;2023-09-19T12:22:43;1.95;;;1.00;;
12135;SDS011;6131;56.420;15.548;2023-09-19T12:25:10;2.00;;;0.90;;
12135;SDS011;6131;56.420;15.548;2023-09-19T12:30:09;3.95;;;0.93;;
12135;SDS011;6131;56.420;15.548;2023-09-19T12:32:39;3.47;;;1.20;;
12135;SDS011;6131;56.420;15.548;2023-09-19T12:35:06;1.88;;;0.80;;
12135;SDS011;6131;56.420;15.548;2023-09-19T12:37:42;3.33;;;1.10;;
12135;SDS011;6131;56.420;15.548;2023-09-19T12:40:13;4.07;;;1.23;;
12135;SDS011;6131;56.420;15.548;2023-09-19T12:42:43;2.40;;;0.98;;
12135;SDS011;6131;56.420;15.548;2023-09-19T12:45:10;2.58;;;1.10;;
12135;SDS011;6131;56.420;15.548;2023-09-19T12:47:40;2.75;;;1.00;;
12135;SDS011;6131;56.420;15.548;2023-09-19T12:52:52;3.30;;;1.00;;
12135;SDS011;6131;56.420;15.548;2023-09-19T12:57:57;3.47;;;1.00;;
12135;SDS011;6131;56.420;15.548;2023-09-19T13:00:36;2.63;;;1.10;;
12135;SDS011;6131;56.420;15.548;2023-09-19T13:03:25;2.95;;;0.98;;
12135;SDS011;6131;56.420;15.548;2023-09-19T13:05:52;1.80;;;1.00;;
12135;SDS011;6131;56.420;15.548;2023-09-19T13:08:26;5.10;;;1.30;;
12135;SDS011;6131;56.420;15.548;2023-09-19T13:11:10;5.50;;;1.13;;
12135;SDS011;6131;56.420;15.548;2023-09-19T13:13:41;2.78;;;1.10;;
12135;SDS011;6131;56.420;15.548;2023-09-19T13:16:09;5.45;;;1.40;;
12135;SDS011;6131;56.420;15.548;2023-09-19T13:18:45;3.50;;;1.20;;
12135;SDS011;6131;56.420;15.548;2023-09-19T13:21:12;2.92;;;1.15;;
12135;SDS011;6131;56.420;15.548;2023-09-19T13:23:49;4.05;;;1.30;;
12135;SDS011;6131;56.420;15.548;2023-09-19T13:26:15;3.60;;;1.20;;
12135;SDS011;6131;56.420;15.548;2023-09-19T13:28:41;2.85;;;1.20;;
12135;SDS011;6131;56.420;15.548;2023-09-19T13:31:09;2.35;;;0.93;;
12135;SDS011;6131;56.420;15.548;2023-09-19T13:33:42;2.90;;;1.10;;
12135;SDS011;6131;56.420;15.548;2023-09-19T13:36:08;3.55;;;1.10;;
12135;SDS011;6131;56.420;15.548;2023-09-19T13:38:34;4.78;;;1.30;;
12135;SDS011;6131;56.420;15.548;2023-09-19T13:41:00;3.42;;;1.20;;
12135;SDS011;6131;56.420;15.548;2023-09-19T13:43:27;5.72;;;1.30;;
12135;SDS011;6131;56.420;15.548;2023-09-19T13:45:54;5.65;;;1.27;;
12135;SDS011;6131;56.420;15.548;2023-09-19T13:48:20;2.42;;;1.00;;
12135;SDS011;6131;56.420;15.548;2023-09-19T13:50:47;3.00;;;1.10;;
12135;SDS011;6131;56.420;15.548;2023-09-19T13:53:13;3.55;;;1.13;;
12135;SDS011;6131;56.420;15.548;2023-09-19T13:55:39;4.78;;;1.23;;
12135;SDS011;6131;56.420;15.548;2023-09-19T13:58:06;4.20;;;1.42;;
12135;SDS011;6131;56.420;15.548;2023-09-19T14:00:32;5.57;;;1.30;;
12135;SDS011;6131;56.420;15.548;2023-09-19T14:03:01;3.03;;;1.40;;
12135;SDS011;6131;56.420;15.548;2023-09-19T14:05:29;2.67;;;0.90;;
12135;SDS011;6131;56.420;15.548;2023-09-19T14:07:55;6.35;;;1.10;;
12135;SDS011;6131;56.420;15.548;2023-09-19T14:10:22;6.60;;;1.23;;
12135;SDS011;6131;56.420;15.548;2023-09-19T14:12:48;7.32;;;1.50;;
12135;SDS011;6131;56.420;15.548;2023-09-19T14:15:14;7.03;;;1.20;;
12135;SDS011;6131;56.420;15.548;2023-09-19T14:17:40;4.43;;;1.40;;
12135;SDS011;6131;56.420;15.548;2023-09-19T14:20:12;3.78;;;1.27;;
12135;SDS011;6131;56.420;15.548;2023-09-19T14:22:40;4.97;;;1.30;;
12135;SDS011;6131;56.420;15.548;2023-09-19T14:25:07;3.90;;;1.30;;
12135;SDS011;6131;56.420;15.548;2023-09-19T14:27:34;6.57;;;1.40;;
12135;SDS011;6131;56.420;15.548;2023-09-19T14:30:00;3.55;;;1.02;;
12135;SDS011;6131;56.420;15.548;2023-09-19T14:32:26;3.97;;;1.33;;
12135;SDS011;6131;56.420;15.548;2023-09-19T14:34:52;5.50;;;1.05;;
12135;SDS011;6131;56.420;15.548;2023-09-19T14:37:18;2.97;;;1.20;;
12135;SDS011;6131;56.420;15.548;2023-09-19T14:39:46;4.13;;;1.13;;
12135;SDS011;6131;56.420;15.548;2023-09-19T14:42:12;4.32;;;1.00;;
12135;SDS011;6131;56.420;15.548;2023-09-19T14:44:42;4.70;;;1.15;;
12135;SDS011;6131;56.420;15.548;2023-09-19T14:47:08;3.08;;;1.20;;
12135;SDS011;6131;56.420;15.548;2023-09-19T14:49:38;3.22;;;0.98;;
12135;SDS011;6131;56.420;15.548;2023-09-19T14:52:08;4.72;;;1.10;;
12135;SDS011;6131;56.420;15.548;2023-09-19T14:54:34;4.45;;;1.30;;
12135;SDS011;6131;56.420;15.548;2023-09-19T14:57:02;6.90;;;1.73;;
12135;SDS011;6131;56.420;15.548;2023-09-19T14:59:33;3.30;;;1.02;;
12135;SDS011;6131;56.420;15.548;2023-09-19T15:02:04;5.28;;;1.25;;
12135;SDS011;6131;56.420;15.548;2023-09-19T15:04:30;3.20;;;1.20;;
12135;SDS011;6131;56.420;15.548;2023-09-19T15:06:56;5.38;;;1.48;;
12135;SDS011;6131;56.420;15.548;2023-09-19T15:09:23;2.92;;;1.10;;
12135;SDS011;6131;56.420;15.548;2023-09-19T15:11:53;3.42;;;1.20;;
12135;SDS011;6131;56.420;15.548;2023-09-19T15:14:19;4.78;;;1.30;;
12135;SDS011;6131;56.420;15.548;2023-09-19T15:16:46;4.47;;;1.20;;
12135;SDS011;6131;56.420;15.548;2023-09-19T15:19:12;4.43;;;1.27;;
12135;SDS011;6131;56.420;15.548;2023-09-19T15:21:38;4.85;;;1.30;;
12135;SDS011;6131;56.420;15.548;2023-09-19T15:24:05;4.95;;;1.40;;
12135;SDS011;6131;56.420;15.548;2023-09-19T15:26:34;4.93;;;1.38;;
12135;SDS011;6131;56.420;15.548;2023-09-19T15:29:04;5.60;;;1.58;;
12135;SDS011;6131;56.420;15.548;2023-09-19T15:31:30;5.00;;;1.35;;
12135;SDS011;6131;56.420;15.548;2023-09-19T15:33:56;5.63;;;1.25;;
12135;SDS011;6131;56.420;15.548;2023-09-19T15:36:22;5.40;;;1.77;;
12135;SDS011;6131;56.420;15.548;2023-09-19T15:41:15;7.85;;;1.85;;
12135;SDS011;6131;56.420;15.548;2023-09-19T15:43:41;7.03;;;1.80;;
12135;SDS011;6131;56.420;15.548;2023-09-19T15:46:07;5.53;;;1.77;;
12135;SDS011;6131;56.420;15.548;2023-09-19T15:48:34;5.75;;;1.45;;
12135;SDS011;6131;56.420;15.548;2023-09-19T15:51:04;4.32;;;1.75;;